sensor_id;sensor_type;location;lat;lon;timestamp;pressure;altitude;pressure_sealevel;temperature;humidity
12594;BME280;6362;50.208;9.182;2023-01-15T00:01:04;98349.63;;;9.05;87.00
12594;BME280;6362;50.208;9.182;2023-01-15T00:03:31;98344.38;;;9.07;87.02
12594;BME280;6362;50.208;9.182;2023-01-15T00:06:01;98341.59;;;9.13;86.25
12594;BME280;6362;50.208;9.182;2023-01-15T00:08:26;98330.47;;;9.09;86.80
12594;BME280;6362;50.208;9.182;2023-01-15T00:10:52;98330.47;;;9.09;86.66
12594;BME280;6362;50.208;9.182;2023-01-15T00:13:17;98322.56;;;9.14;86.50
12594;BME280;6362;50.208;9.182;2023-01-15T00:15:42;98313.94;;;9.13;86.35
12594;BME280;6362;50.208;9.182;2023-01-15T00:18:08;98316.44;;;9.16;86.66
12594;BME280;6362;50.208;9.182;2023-01-15T00:20:34;98315.44;;;9.20;86.01
12594;BME280;6362;50.208;9.182;2023-01-15T00:22:59;98315.56;;;9.17;86.28
12594;BME280;6362;50.208;9.182;2023-01-15T00:25:25;98330.16;;;9.20;86.44
12594;BME280;6362;50.208;9.182;2023-01-15T00:28:12;98314.59;;;9.20;86.33
12594;BME280;6362;50.208;9.182;2023-01-15T00:30:40;98307.59;;;9.23;85.96
12594;BME280;6362;50.208;9.182;2023-01-15T00:33:08;98298.06;;;9.24;85.92
12594;BME280;6362;50.208;9.182;2023-01-15T00:35:34;98311.16;;;9.19;86.62
12594;BME280;6362;50.208;9.182;2023-01-15T00:37:59;98314.59;;;9.20;86.54
12594;BME280;6362;50.208;9.182;2023-01-15T00:40:25;98305.06;;;9.22;86.67
12594;BME280;6362;50.208;9.182;2023-01-15T00:42:50;98298.13;;;9.21;86.71
12594;BME280;6362;50.208;9.182;2023-01-15T00:45:16;98286.06;;;9.20;86.43
12594;BME280;6362;50.208;9.182;2023-01-15T00:47:43;98287.75;;;9.21;86.39
12594;BME280;6362;50.208;9.182;2023-01-15T00:50:12;98291.13;;;9.24;86.36
12594;BME280;6362;50.208;9.182;2023-01-15T00:52:39;98285.94;;;9.24;86.43
12594;BME280;6362;50.208;9.182;2023-01-15T00:55:05;98291.09;;;9.26;86.34
12594;BME280;6362;50.208;9.182;2023-01-15T00:57:32;98269.34;;;9.30;85.84
12594;BME280;6362;50.208;9.182;2023-01-15T00:59:57;98280.53;;;9.32;85.94
12594;BME280;6362;50.208;9.182;2023-01-15T01:02:22;98283.28;;;9.28;86.03
12594;BME280;6362;50.208;9.182;2023-01-15T01:04:48;98285.81;;;9.29;86.34
12594;BME280;6362;50.208;9.182;2023-01-15T01:07:13;98289.25;;;9.30;86.32
12594;BME280;6362;50.208;9.182;2023-01-15T01:09:39;98286.75;;;9.26;86.48
12594;BME280;6362;50.208;9.182;2023-01-15T01:12:05;98277.22;;;9.27;86.45
12594;BME280;6362;50.208;9.182;2023-01-15T01:14:30;98274.72;;;9.24;86.71
12594;BME280;6362;50.208;9.182;2023-01-15T01:16:56;98268.75;;;9.22;86.93
12594;BME280;6362;50.208;9.182;2023-01-15T01:19:23;98272.22;;;9.21;87.09
12594;BME280;6362;50.208;9.182;2023-01-15T01:21:50;98277.56;;;9.16;87.43
12594;BME280;6362;50.208;9.182;2023-01-15T01:24:18;98260.97;;;9.20;87.38
12594;BME280;6362;50.208;9.182;2023-01-15T01:26:44;98271.34;;;9.22;87.38
12594;BME280;6362;50.208;9.182;2023-01-15T01:29:15;98271.34;;;9.20;87.41
12594;BME280;6362;50.208;9.182;2023-01-15T01:31:41;98270.56;;;9.18;87.67
12594;BME280;6362;50.208;9.182;2023-01-15T01:34:07;98259.47;;;9.13;87.98
12594;BME280;6362;50.208;9.182;2023-01-15T01:36:35;98270.47;;;9.21;87.65
12594;BME280;6362;50.208;9.182;2023-01-15T01:39:01;98265.28;;;9.21;87.26
12594;BME280;6362;50.208;9.182;2023-01-15T01:41:28;98263.69;;;9.16;87.51
12594;BME280;6362;50.208;9.182;2023-01-15T01:44:06;98269.66;;;9.19;87.38
12594;BME280;6362;50.208;9.182;2023-01-15T01:46:34;98260.09;;;9.21;87.31
12594;BME280;6362;50.208;9.182;2023-01-15T01:49:09;98259.22;;;9.21;87.51
12594;BME280;6362;50.208;9.182;2023-01-15T01:51:39;98261.09;;;9.17;87.57
12594;BME280;6362;50.208;9.182;2023-01-15T01:54:06;98255.78;;;9.20;87.52
12594;BME280;6362;50.208;9.182;2023-01-15T01:56:34;98253.25;;;9.19;87.76
12594;BME280;6362;50.208;9.182;2023-01-15T01:59:02;98260.13;;;9.20;87.33
12594;BME280;6362;50.208;9.182;2023-01-15T02:01:28;98254.94;;;9.20;87.85
12594;BME280;6362;50.208;9.182;2023-01-15T02:03:54;98274.66;;;9.25;87.63
12594;BME280;6362;50.208;9.182;2023-01-15T02:06:21;98296.00;;;9.06;88.72
12594;BME280;6362;50.208;9.182;2023-01-15T02:08:48;98305.66;;;8.99;89.05
12594;BME280;6362;50.208;9.182;2023-01-15T02:11:17;98310.22;;;8.58;86.98
12594;BME280;6362;50.208;9.182;2023-01-15T02:16:42;98314.88;;;8.45;87.55
12594;BME280;6362;50.208;9.182;2023-01-15T02:19:43;98319.41;;;8.36;88.06
12594;BME280;6362;50.208;9.182;2023-01-15T02:25:20;98317.16;;;8.20;88.08
12594;BME280;6362;50.208;9.182;2023-01-15T02:28:03;98325.06;;;8.14;88.30
12594;BME280;6362;50.208;9.182;2023-01-15T02:30:39;98326.72;;;8.18;88.36
12594;BME280;6362;50.208;9.182;2023-01-15T02:33:17;98328.63;;;8.10;87.52
12594;BME280;6362;50.208;9.182;2023-01-15T02:35:54;98337.69;;;7.91;85.56
12594;BME280;6362;50.208;9.182;2023-01-15T02:38:23;98329.56;;;7.69;84.76
12594;BME280;6362;50.208;9.182;2023-01-15T02:40:53;98340.25;;;7.52;85.16
12594;BME280;6362;50.208;9.182;2023-01-15T02:43:21;98345.19;;;7.23;85.38
12594;BME280;6362;50.208;9.182;2023-01-15T02:45:50;98357.47;;;7.11;85.80
12594;BME280;6362;50.208;9.182;2023-01-15T02:48:19;98358.59;;;6.97;84.91
12594;BME280;6362;50.208;9.182;2023-01-15T02:50:51;98366.50;;;6.89;84.95
12594;BME280;6362;50.208;9.182;2023-01-15T02:53:22;98376.94;;;6.83;85.26
12594;BME280;6362;50.208;9.182;2023-01-15T02:55:51;98372.81;;;6.73;85.53
12594;BME280;6362;50.208;9.182;2023-01-15T02:58:21;98364.28;;;6.68;86.04
12594;BME280;6362;50.208;9.182;2023-01-15T03:00:48;98370.53;;;6.56;86.17
12594;BME280;6362;50.208;9.182;2023-01-15T03:08:31;98380.09;;;6.48;86.69
12594;BME280;6362;50.208;9.182;2023-01-15T03:11:08;98381.00;;;6.47;86.93
12594;BME280;6362;50.208;9.182;2023-01-15T03:16:25;98394.06;;;6.36;86.85
12594;BME280;6362;50.208;9.182;2023-01-15T03:27:07;98394.28;;;6.22;87.08
12594;BME280;6362;50.208;9.182;2023-01-15T03:29:38;98395.09;;;6.24;87.16
12594;BME280;6362;50.208;9.182;2023-01-15T03:32:04;98396.00;;;6.23;87.39
12594;BME280;6362;50.208;9.182;2023-01-15T03:34:38;98400.34;;;6.20;88.03
12594;BME280;6362;50.208;9.182;2023-01-15T03:37:04;98396.06;;;6.19;87.89
12594;BME280;6362;50.208;9.182;2023-01-15T03:39:30;98406.44;;;6.14;87.80
12594;BME280;6362;50.208;9.182;2023-01-15T03:52:58;98430.13;;;5.76;86.62
12594;BME280;6362;50.208;9.182;2023-01-15T03:55:38;98431.00;;;5.78;87.04
12594;BME280;6362;50.208;9.182;2023-01-15T04:00:44;98440.72;;;5.56;84.93
12594;BME280;6362;50.208;9.182;2023-01-15T04:03:13;98444.13;;;5.55;84.75
12594;BME280;6362;50.208;9.182;2023-01-15T04:05:41;98437.50;;;5.34;83.33
12594;BME280;6362;50.208;9.182;2023-01-15T04:08:07;98437.50;;;5.33;83.88
12594;BME280;6362;50.208;9.182;2023-01-15T04:10:33;98441.84;;;5.29;84.53
12594;BME280;6362;50.208;9.182;2023-01-15T04:12:59;98455.72;;;5.16;83.81
12594;BME280;6362;50.208;9.182;2023-01-15T04:15:24;98466.13;;;5.07;83.23
12594;BME280;6362;50.208;9.182;2023-01-15T04:17:49;98463.66;;;4.96;83.54
12594;BME280;6362;50.208;9.182;2023-01-15T04:20:15;98457.75;;;4.83;83.81
12594;BME280;6362;50.208;9.182;2023-01-15T04:22:40;98462.09;;;4.78;84.46
12594;BME280;6362;50.208;9.182;2023-01-15T04:25:07;98463.75;;;4.81;84.60
12594;BME280;6362;50.208;9.182;2023-01-15T04:27:32;98470.75;;;4.68;84.68
12594;BME280;6362;50.208;9.182;2023-01-15T04:29:58;98467.28;;;4.72;84.85
12594;BME280;6362;50.208;9.182;2023-01-15T04:32:23;98466.41;;;4.71;85.72
12594;BME280;6362;50.208;9.182;2023-01-15T04:34:49;98484.50;;;4.61;85.63
12594;BME280;6362;50.208;9.182;2023-01-15T04:37:15;98483.66;;;4.62;85.72
12594;BME280;6362;50.208;9.182;2023-01-15T04:39:41;98479.38;;;4.59;86.74
12594;BME280;6362;50.208;9.182;2023-01-15T04:42:11;98481.94;;;4.64;86.12
12594;BME280;6362;50.208;9.182;2023-01-15T04:44:55;98489.66;;;4.62;86.46
12594;BME280;6362;50.208;9.182;2023-01-15T04:47:20;98502.56;;;4.58;86.43
12594;BME280;6362;50.208;9.182;2023-01-15T04:49:46;98503.41;;;4.58;85.79
12594;BME280;6362;50.208;9.182;2023-01-15T04:52:11;98500.03;;;4.52;86.06
12594;BME280;6362;50.208;9.182;2023-01-15T04:54:37;98503.53;;;4.38;85.20
12594;BME280;6362;50.208;9.182;2023-01-15T04:57:03;98511.22;;;4.43;84.90
12594;BME280;6362;50.208;9.182;2023-01-15T04:59:28;98513.00;;;4.35;84.02
12594;BME280;6362;50.208;9.182;2023-01-15T05:01:54;98513.03;;;4.30;83.74
12594;BME280;6362;50.208;9.182;2023-01-15T05:04:20;98500.19;;;4.29;84.32
12594;BME280;6362;50.208;9.182;2023-01-15T05:06:46;98491.63;;;4.22;83.37
12594;BME280;6362;50.208;9.182;2023-01-15T05:09:11;98507.03;;;4.28;82.95
12594;BME280;6362;50.208;9.182;2023-01-15T05:11:38;98522.56;;;4.13;82.65
12594;BME280;6362;50.208;9.182;2023-01-15T05:14:04;98535.41;;;4.14;83.34
12594;BME280;6362;50.208;9.182;2023-01-15T05:16:32;98532.00;;;4.08;82.16
12594;BME280;6362;50.208;9.182;2023-01-15T05:19:00;98516.63;;;3.92;82.45
12594;BME280;6362;50.208;9.182;2023-01-15T05:21:29;98509.75;;;3.96;82.73
12594;BME280;6362;50.208;9.182;2023-01-15T05:24:00;98517.50;;;3.94;83.47
12594;BME280;6362;50.208;9.182;2023-01-15T05:26:28;98504.63;;;3.93;83.58
12594;BME280;6362;50.208;9.182;2023-01-15T05:28:56;98508.94;;;3.89;83.13
12594;BME280;6362;50.208;9.182;2023-01-15T05:31:22;98508.06;;;3.92;83.90
12594;BME280;6362;50.208;9.182;2023-01-15T05:33:48;98508.03;;;3.96;84.12
12594;BME280;6362;50.208;9.182;2023-01-15T05:36:17;98510.59;;;4.03;85.20
12594;BME280;6362;50.208;9.182;2023-01-15T05:38:43;98511.44;;;4.03;85.10
12594;BME280;6362;50.208;9.182;2023-01-15T05:41:11;98519.13;;;4.05;85.18
12594;BME280;6362;50.208;9.182;2023-01-15T05:44:00;98520.88;;;4.06;85.53
12594;BME280;6362;50.208;9.182;2023-01-15T05:46:26;98522.63;;;3.93;85.29
12594;BME280;6362;50.208;9.182;2023-01-15T05:48:51;98532.03;;;3.97;85.35
12594;BME280;6362;50.208;9.182;2023-01-15T05:51:17;98531.19;;;3.96;84.71
12594;BME280;6362;50.208;9.182;2023-01-15T05:53:42;98541.47;;;3.98;85.45
12594;BME280;6362;50.208;9.182;2023-01-15T05:56:08;98554.31;;;4.03;85.73
12594;BME280;6362;50.208;9.182;2023-01-15T05:58:34;98555.19;;;4.02;85.78
12594;BME280;6362;50.208;9.182;2023-01-15T06:00:59;98553.41;;;4.10;85.47
12594;BME280;6362;50.208;9.182;2023-01-15T06:03:25;98550.84;;;4.10;86.27
12594;BME280;6362;50.208;9.182;2023-01-15T06:05:55;98559.41;;;4.15;85.55
12594;BME280;6362;50.208;9.182;2023-01-15T06:08:21;98562.84;;;4.11;86.29
12594;BME280;6362;50.208;9.182;2023-01-15T06:10:48;98577.44;;;4.09;86.86
12594;BME280;6362;50.208;9.182;2023-01-15T06:13:15;98573.13;;;4.11;86.45
12594;BME280;6362;50.208;9.182;2023-01-15T06:15:40;98564.56;;;4.09;86.60
12594;BME280;6362;50.208;9.182;2023-01-15T06:18:06;98574.00;;;4.08;87.16
12594;BME280;6362;50.208;9.182;2023-01-15T06:20:37;98569.75;;;4.03;86.67
12594;BME280;6362;50.208;9.182;2023-01-15T06:23:03;98554.31;;;4.06;86.86
12594;BME280;6362;50.208;9.182;2023-01-15T06:25:31;98543.16;;;4.08;86.82
12594;BME280;6362;50.208;9.182;2023-01-15T06:27:59;98563.72;;;4.08;87.50
12594;BME280;6362;50.208;9.182;2023-01-15T06:30:24;98573.16;;;4.08;87.35
12594;BME280;6362;50.208;9.182;2023-01-15T06:32:50;98559.44;;;4.00;87.73
12594;BME280;6362;50.208;9.182;2023-01-15T06:35:15;98556.03;;;3.99;87.79
12594;BME280;6362;50.208;9.182;2023-01-15T06:37:41;98560.31;;;3.98;87.41
12594;BME280;6362;50.208;9.182;2023-01-15T06:40:07;98564.59;;;4.00;87.82
12594;BME280;6362;50.208;9.182;2023-01-15T06:42:33;98568.91;;;3.97;87.40
12594;BME280;6362;50.208;9.182;2023-01-15T06:45:22;98561.22;;;3.94;87.87
12594;BME280;6362;50.208;9.182;2023-01-15T06:48:06;98559.44;;;4.04;87.87
12594;BME280;6362;50.208;9.182;2023-01-15T06:50:32;98565.44;;;4.08;87.56
12594;BME280;6362;50.208;9.182;2023-01-15T06:52:57;98567.16;;;4.03;87.94
12594;BME280;6362;50.208;9.182;2023-01-15T06:55:23;98589.50;;;3.94;88.16
12594;BME280;6362;50.208;9.182;2023-01-15T06:57:48;98590.34;;;3.95;88.02
12594;BME280;6362;50.208;9.182;2023-01-15T07:00:14;98588.63;;;3.97;88.76
12594;BME280;6362;50.208;9.182;2023-01-15T07:02:40;98595.47;;;3.93;88.21
12594;BME280;6362;50.208;9.182;2023-01-15T07:05:06;98606.63;;;3.94;88.09
12594;BME280;6362;50.208;9.182;2023-01-15T07:07:32;98617.78;;;3.93;87.73
12594;BME280;6362;50.208;9.182;2023-01-15T07:09:57;98626.38;;;3.90;87.86
12594;BME280;6362;50.208;9.182;2023-01-15T07:12:23;98616.94;;;3.89;87.65
12594;BME280;6362;50.208;9.182;2023-01-15T07:14:48;98605.81;;;3.89;88.39
12594;BME280;6362;50.208;9.182;2023-01-15T07:17:16;98607.50;;;3.90;88.18
12594;BME280;6362;50.208;9.182;2023-01-15T07:19:42;98607.50;;;3.93;87.15
12594;BME280;6362;50.208;9.182;2023-01-15T07:22:08;98614.34;;;3.94;87.92
12594;BME280;6362;50.208;9.182;2023-01-15T07:24:34;98613.50;;;3.95;87.47
12594;BME280;6362;50.208;9.182;2023-01-15T07:27:00;98605.75;;;4.03;87.84
12594;BME280;6362;50.208;9.182;2023-01-15T07:29:25;98610.06;;;4.01;88.01
12594;BME280;6362;50.208;9.182;2023-01-15T07:31:51;98617.75;;;3.99;87.04
12594;BME280;6362;50.208;9.182;2023-01-15T07:34:17;98623.75;;;4.00;87.91
12594;BME280;6362;50.208;9.182;2023-01-15T07:36:42;98631.50;;;3.92;86.48
12594;BME280;6362;50.208;9.182;2023-01-15T07:39:09;98634.94;;;3.82;85.58
12594;BME280;6362;50.208;9.182;2023-01-15T07:41:35;98635.81;;;3.90;85.07
12594;BME280;6362;50.208;9.182;2023-01-15T07:44:20;98651.25;;;3.75;83.42
12594;BME280;6362;50.208;9.182;2023-01-15T07:47:19;98662.38;;;3.64;83.64
12594;BME280;6362;50.208;9.182;2023-01-15T07:50:05;98662.38;;;3.66;84.69
12594;BME280;6362;50.208;9.182;2023-01-15T07:52:31;98672.66;;;3.66;84.46
12594;BME280;6362;50.208;9.182;2023-01-15T07:54:56;98678.69;;;3.73;84.88
12594;BME280;6362;50.208;9.182;2023-01-15T07:57:22;98682.09;;;3.73;83.78
12594;BME280;6362;50.208;9.182;2023-01-15T07:59:48;98681.25;;;3.65;84.46
12594;BME280;6362;50.208;9.182;2023-01-15T08:02:14;98668.38;;;3.53;83.45
12594;BME280;6362;50.208;9.182;2023-01-15T08:04:40;98680.41;;;3.44;83.59
12594;BME280;6362;50.208;9.182;2023-01-15T08:07:06;98679.53;;;3.47;84.54
12594;BME280;6362;50.208;9.182;2023-01-15T08:09:32;98689.78;;;3.42;85.18
12594;BME280;6362;50.208;9.182;2023-01-15T08:11:58;98682.97;;;3.44;85.21
12594;BME280;6362;50.208;9.182;2023-01-15T08:14:43;98697.50;;;3.47;85.44
12594;BME280;6362;50.208;9.182;2023-01-15T08:17:27;98694.09;;;3.76;85.89
12594;BME280;6362;50.208;9.182;2023-01-15T08:19:52;98694.06;;;3.94;85.09
12594;BME280;6362;50.208;9.182;2023-01-15T08:22:18;98684.66;;;3.94;85.94
12594;BME280;6362;50.208;9.182;2023-01-15T08:24:43;98693.22;;;4.06;86.48
12594;BME280;6362;50.208;9.182;2023-01-15T08:27:09;98691.50;;;4.09;87.84
12594;BME280;6362;50.208;9.182;2023-01-15T08:29:34;98697.50;;;4.17;87.00
12594;BME280;6362;50.208;9.182;2023-01-15T08:32:00;98694.03;;;4.34;85.53
12594;BME280;6362;50.208;9.182;2023-01-15T08:34:25;98700.84;;;4.45;84.86
12594;BME280;6362;50.208;9.182;2023-01-15T08:36:51;98698.25;;;4.52;84.90
12594;BME280;6362;50.208;9.182;2023-01-15T08:39:22;98699.97;;;4.51;84.58
12594;BME280;6362;50.208;9.182;2023-01-15T08:41:47;98703.38;;;4.58;83.39
12594;BME280;6362;50.208;9.182;2023-01-15T08:44:13;98706.84;;;4.50;83.13
12594;BME280;6362;50.208;9.182;2023-01-15T08:46:38;98707.75;;;4.39;82.89
12594;BME280;6362;50.208;9.182;2023-01-15T08:49:04;98707.75;;;4.25;83.81
12594;BME280;6362;50.208;9.182;2023-01-15T08:51:29;98707.75;;;4.31;83.65
12594;BME280;6362;50.208;9.182;2023-01-15T08:53:54;98708.63;;;4.21;84.21
12594;BME280;6362;50.208;9.182;2023-01-15T08:56:20;98718.06;;;4.23;84.85
12594;BME280;6362;50.208;9.182;2023-01-15T08:58:45;98724.06;;;4.13;84.66
12594;BME280;6362;50.208;9.182;2023-01-15T09:01:13;98720.66;;;4.13;85.17
12594;BME280;6362;50.208;9.182;2023-01-15T09:03:41;98737.81;;;4.02;86.02
12594;BME280;6362;50.208;9.182;2023-01-15T09:06:06;98739.50;;;4.15;85.33
12594;BME280;6362;50.208;9.182;2023-01-15T09:08:32;98745.53;;;4.06;85.38
12594;BME280;6362;50.208;9.182;2023-01-15T09:10:58;98740.34;;;4.11;85.81
12594;BME280;6362;50.208;9.182;2023-01-15T09:13:25;98750.66;;;4.12;85.53
12594;BME280;6362;50.208;9.182;2023-01-15T09:15:51;98740.38;;;3.95;85.29
12594;BME280;6362;50.208;9.182;2023-01-15T09:18:16;98740.38;;;4.02;86.06
12594;BME280;6362;50.208;9.182;2023-01-15T09:20:45;98741.22;;;4.04;85.43
12594;BME280;6362;50.208;9.182;2023-01-15T09:23:10;98748.06;;;4.11;85.32
12594;BME280;6362;50.208;9.182;2023-01-15T09:25:36;98751.53;;;4.07;86.21
12594;BME280;6362;50.208;9.182;2023-01-15T09:28:01;98749.78;;;4.15;85.90
12594;BME280;6362;50.208;9.182;2023-01-15T09:30:27;98760.94;;;4.14;85.96
12594;BME280;6362;50.208;9.182;2023-01-15T09:32:53;98754.94;;;4.16;85.61
12594;BME280;6362;50.208;9.182;2023-01-15T09:35:19;98760.97;;;4.18;85.54
12594;BME280;6362;50.208;9.182;2023-01-15T09:37:50;98759.25;;;4.07;85.89
12594;BME280;6362;50.208;9.182;2023-01-15T09:40:45;98775.53;;;4.09;86.22
12594;BME280;6362;50.208;9.182;2023-01-15T09:51:57;98775.53;;;4.12;85.80
12594;BME280;6362;50.208;9.182;2023-01-15T09:55:41;98782.41;;;4.11;85.96
12594;BME280;6362;50.208;9.182;2023-01-15T09:57:34;98778.09;;;4.15;85.88
12594;BME280;6362;50.208;9.182;2023-01-15T10:00:02;98773.81;;;4.14;86.24
12594;BME280;6362;50.208;9.182;2023-01-15T10:05:22;98778.97;;;4.18;85.33
12594;BME280;6362;50.208;9.182;2023-01-15T10:08:03;98791.81;;;4.24;85.54
12594;BME280;6362;50.208;9.182;2023-01-15T10:10:44;98783.25;;;4.18;85.08
12594;BME280;6362;50.208;9.182;2023-01-15T10:13:36;98780.69;;;4.22;84.77
12594;BME280;6362;50.208;9.182;2023-01-15T10:16:06;98789.28;;;4.17;85.06
12594;BME280;6362;50.208;9.182;2023-01-15T10:18:32;98786.66;;;4.32;83.90
12594;BME280;6362;50.208;9.182;2023-01-15T10:21:06;98793.53;;;4.30;84.42
12594;BME280;6362;50.208;9.182;2023-01-15T10:26:51;98797.81;;;4.36;83.94
12594;BME280;6362;50.208;9.182;2023-01-15T10:29:48;98792.69;;;4.28;84.44
12594;BME280;6362;50.208;9.182;2023-01-15T10:40:56;98792.66;;;4.48;83.38
12594;BME280;6362;50.208;9.182;2023-01-15T10:46:20;98793.53;;;4.42;82.79
12594;BME280;6362;50.208;9.182;2023-01-15T10:48:51;98799.53;;;4.44;83.06
12594;BME280;6362;50.208;9.182;2023-01-15T10:51:36;98794.38;;;4.49;82.60
12594;BME280;6362;50.208;9.182;2023-01-15T10:57:11;98800.34;;;4.54;82.53
12594;BME280;6362;50.208;9.182;2023-01-15T11:02:43;98811.53;;;4.47;82.47
12594;BME280;6362;50.208;9.182;2023-01-15T11:05:17;98808.09;;;4.57;82.71
12594;BME280;6362;50.208;9.182;2023-01-15T11:07:46;98801.25;;;4.52;82.18
12594;BME280;6362;50.208;9.182;2023-01-15T11:10:15;98814.97;;;4.61;83.20
12594;BME280;6362;50.208;9.182;2023-01-15T11:12:54;98816.69;;;4.53;83.28
12594;BME280;6362;50.208;9.182;2023-01-15T11:15:44;98814.06;;;4.65;82.51
12594;BME280;6362;50.208;9.182;2023-01-15T11:18:33;98811.50;;;4.64;82.25
12594;BME280;6362;50.208;9.182;2023-01-15T11:21:20;98809.81;;;4.52;82.52
12594;BME280;6362;50.208;9.182;2023-01-15T11:23:47;98807.22;;;4.63;82.29
12594;BME280;6362;50.208;9.182;2023-01-15T11:26:32;98799.50;;;4.61;81.68
12594;BME280;6362;50.208;9.182;2023-01-15T11:29:00;98798.63;;;4.64;81.67
12594;BME280;6362;50.208;9.182;2023-01-15T11:31:37;98804.66;;;4.61;81.38
12594;BME280;6362;50.208;9.182;2023-01-15T11:34:05;98808.06;;;4.79;81.27
12594;BME280;6362;50.208;9.182;2023-01-15T11:36:32;98805.44;;;4.86;80.93
12594;BME280;6362;50.208;9.182;2023-01-15T11:38:58;98803.72;;;4.94;80.60
12594;BME280;6362;50.208;9.182;2023-01-15T11:41:29;98802.00;;;4.87;80.58
12594;BME280;6362;50.208;9.182;2023-01-15T11:44:14;98804.59;;;4.87;79.73
12594;BME280;6362;50.208;9.182;2023-01-15T11:46:58;98808.84;;;4.97;80.22
12594;BME280;6362;50.208;9.182;2023-01-15T11:49:53;98813.16;;;4.88;79.81
12594;BME280;6362;50.208;9.182;2023-01-15T11:52:42;98824.34;;;4.76;79.11
12594;BME280;6362;50.208;9.182;2023-01-15T11:55:15;98807.19;;;4.84;78.56
12594;BME280;6362;50.208;9.182;2023-01-15T11:57:43;98802.84;;;4.92;79.12
12594;BME280;6362;50.208;9.182;2023-01-15T12:00:23;98811.38;;;5.05;78.87
12594;BME280;6362;50.208;9.182;2023-01-15T12:02:51;98812.25;;;5.12;77.71
12594;BME280;6362;50.208;9.182;2023-01-15T12:05:21;98807.06;;;5.15;76.90
12594;BME280;6362;50.208;9.182;2023-01-15T12:07:50;98788.91;;;5.45;76.20
12594;BME280;6362;50.208;9.182;2023-01-15T12:10:18;98786.88;;;5.93;74.64
12594;BME280;6362;50.208;9.182;2023-01-15T12:22:01;98783.91;;;8.86;62.63
12594;BME280;6362;50.208;9.182;2023-01-15T12:29:58;98786.50;;;11.07;56.13
12594;BME280;6362;50.208;9.182;2023-01-15T12:32:33;98783.44;;;12.11;51.58
12594;BME280;6362;50.208;9.182;2023-01-15T12:35:05;98772.53;;;12.52;49.21
12594;BME280;6362;50.208;9.182;2023-01-15T12:37:45;98798.97;;;12.91;47.51
12594;BME280;6362;50.208;9.182;2023-01-15T12:42:38;98777.47;;;12.84;47.41
12594;BME280;6362;50.208;9.182;2023-01-15T12:45:28;98774.16;;;13.29;46.53
12594;BME280;6362;50.208;9.182;2023-01-15T12:53:26;98758.59;;;13.01;46.46
12594;BME280;6362;50.208;9.182;2023-01-15T12:58:55;98771.50;;;12.81;46.79
12594;BME280;6362;50.208;9.182;2023-01-15T13:01:41;98764.69;;;13.02;46.98
12594;BME280;6362;50.208;9.182;2023-01-15T13:04:17;98769.78;;;13.30;45.82
12594;BME280;6362;50.208;9.182;2023-01-15T13:06:52;98757.66;;;13.51;45.25
12594;BME280;6362;50.208;9.182;2023-01-15T13:09:43;98758.38;;;12.84;46.20
12594;BME280;6362;50.208;9.182;2023-01-15T13:12:12;98771.28;;;11.82;48.51
12594;BME280;6362;50.208;9.182;2023-01-15T13:14:39;98764.75;;;11.69;49.17
12594;BME280;6362;50.208;9.182;2023-01-15T13:22:51;98772.94;;;14.27;42.74
12594;BME280;6362;50.208;9.182;2023-01-15T13:25:38;98769.09;;;13.70;42.34
12594;BME280;6362;50.208;9.182;2023-01-15T13:33:52;98760.38;;;12.51;46.54
12594;BME280;6362;50.208;9.182;2023-01-15T13:36:25;98779.00;;;12.65;46.20
12594;BME280;6362;50.208;9.182;2023-01-15T13:38:54;98778.59;;;12.77;46.29
12594;BME280;6362;50.208;9.182;2023-01-15T13:41:25;98771.56;;;12.79;45.42
12594;BME280;6362;50.208;9.182;2023-01-15T13:44:16;98770.81;;;13.01;44.46
12594;BME280;6362;50.208;9.182;2023-01-15T13:46:43;98785.94;;;13.39;44.09
12594;BME280;6362;50.208;9.182;2023-01-15T13:49:32;98791.91;;;13.66;43.19
12594;BME280;6362;50.208;9.182;2023-01-15T13:52:00;98794.03;;;12.05;46.87
12594;BME280;6362;50.208;9.182;2023-01-15T13:54:29;98795.91;;;12.28;46.63
12594;BME280;6362;50.208;9.182;2023-01-15T13:57:07;98801.69;;;11.83;47.60
12594;BME280;6362;50.208;9.182;2023-01-15T13:59:37;98803.97;;;10.37;51.32
12594;BME280;6362;50.208;9.182;2023-01-15T14:04:51;98807.31;;;9.26;54.89
12594;BME280;6362;50.208;9.182;2023-01-15T14:07:21;98812.16;;;8.53;58.08
12594;BME280;6362;50.208;9.182;2023-01-15T14:09:54;98827.91;;;7.84;59.35
12594;BME280;6362;50.208;9.182;2023-01-15T14:36:38;98848.22;;;11.02;50.85
12594;BME280;6362;50.208;9.182;2023-01-15T14:39:17;98855.06;;;11.06;50.88
12594;BME280;6362;50.208;9.182;2023-01-15T14:41:54;98866.66;;;10.61;52.18
12594;BME280;6362;50.208;9.182;2023-01-15T14:44:40;98860.13;;;9.65;53.99
12594;BME280;6362;50.208;9.182;2023-01-15T14:47:24;98877.59;;;8.64;57.10
12594;BME280;6362;50.208;9.182;2023-01-15T14:50:00;98880.34;;;7.97;59.12
12594;BME280;6362;50.208;9.182;2023-01-15T14:52:26;98873.50;;;7.22;61.55
12594;BME280;6362;50.208;9.182;2023-01-15T14:54:53;98881.72;;;6.79;63.17
12594;BME280;6362;50.208;9.182;2023-01-15T14:57:20;98895.66;;;6.59;64.35
12594;BME280;6362;50.208;9.182;2023-01-15T14:59:52;98885.53;;;6.32;65.07
12594;BME280;6362;50.208;9.182;2023-01-15T15:02:33;98897.72;;;6.15;65.93
12594;BME280;6362;50.208;9.182;2023-01-15T15:05:00;98908.97;;;6.03;66.30
12594;BME280;6362;50.208;9.182;2023-01-15T15:07:34;98903.84;;;5.94;66.70
12594;BME280;6362;50.208;9.182;2023-01-15T15:10:04;98900.47;;;5.84;66.91
12594;BME280;6362;50.208;9.182;2023-01-15T15:18:47;98908.25;;;5.73;66.93
12594;BME280;6362;50.208;9.182;2023-01-15T15:20:52;98907.41;;;5.67;67.31
12594;BME280;6362;50.208;9.182;2023-01-15T15:23:46;98892.78;;;5.69;67.00
12594;BME280;6362;50.208;9.182;2023-01-15T15:26:26;98903.13;;;5.63;66.95
12594;BME280;6362;50.208;9.182;2023-01-15T15:29:05;98892.81;;;5.67;66.94
12594;BME280;6362;50.208;9.182;2023-01-15T15:31:37;98910.00;;;5.67;67.40
12594;BME280;6362;50.208;9.182;2023-01-15T15:34:05;98902.22;;;5.70;67.42
12594;BME280;6362;50.208;9.182;2023-01-15T15:36:34;98909.13;;;5.68;67.02
12594;BME280;6362;50.208;9.182;2023-01-15T15:39:44;98903.97;;;5.69;67.39
12594;BME280;6362;50.208;9.182;2023-01-15T15:42:35;98900.53;;;5.64;67.18
12594;BME280;6362;50.208;9.182;2023-01-15T15:45:29;98898.84;;;5.59;66.64
12594;BME280;6362;50.208;9.182;2023-01-15T15:48:21;98898.78;;;5.66;66.65
12594;BME280;6362;50.208;9.182;2023-01-15T15:51:32;98903.13;;;5.63;66.38
12594;BME280;6362;50.208;9.182;2023-01-15T15:59:33;98912.59;;;5.57;66.44
12594;BME280;6362;50.208;9.182;2023-01-15T16:02:24;98916.88;;;5.65;65.64